createdAt,value
2017-06-23T00:00:22.540Z,27.10
2017-06-23T00:02:50.041Z,27.10
2017-06-23T00:05:17.534Z,27.10
2017-06-23T00:07:45.050Z,27.10
2017-06-23T00:10:12.538Z,27.10
2017-06-23T00:12:40.045Z,27.10
2017-06-23T00:15:07.535Z,27.10
2017-06-23T00:17:35.045Z,27.10
2017-06-23T00:20:02.540Z,27.10
2017-06-23T00:22:30.034Z,27.10
2017-06-23T00:24:57.562Z,27.10
2017-06-23T00:27:25.058Z,27.10
2017-06-23T00:29:52.565Z,27.10
2017-06-23T00:32:20.058Z,27.10
2017-06-23T00:34:47.573Z,27.10
2017-06-23T00:37:15.061Z,27.20
2017-06-23T00:39:42.553Z,27.20
2017-06-23T00:42:10.070Z,27.20
2017-06-23T00:44:37.567Z,27.20
2017-06-23T00:47:05.074Z,27.20
2017-06-23T00:49:32.581Z,27.20
2017-06-23T00:52:00.117Z,27.20
2017-06-23T00:54:27.614Z,27.20
2017-06-23T00:56:55.105Z,27.30
2017-06-23T00:59:22.614Z,27.30
2017-06-23T01:01:50.106Z,27.30
2017-06-23T01:04:17.614Z,27.30
2017-06-23T01:06:45.137Z,27.30
2017-06-23T01:09:12.657Z,27.30
2017-06-23T01:11:40.155Z,27.30
2017-06-23T01:14:07.644Z,27.30
2017-06-23T01:16:35.161Z,27.30
2017-06-23T01:19:02.653Z,27.40
2017-06-23T01:21:30.166Z,27.40
2017-06-23T01:23:57.661Z,27.40
2017-06-23T01:26:25.173Z,27.40
2017-06-23T01:28:52.669Z,27.40
2017-06-23T01:31:20.157Z,27.40
2017-06-23T01:33:47.689Z,27.40
2017-06-23T01:36:15.174Z,27.40
2017-06-23T01:38:42.681Z,27.40
2017-06-23T01:41:10.169Z,27.40
2017-06-23T01:43:37.677Z,27.40
2017-06-23T01:46:05.173Z,27.40
2017-06-23T01:48:32.666Z,27.40
2017-06-23T01:51:00.178Z,27.40
2017-06-23T01:53:27.666Z,27.40
2017-06-23T01:55:55.180Z,27.40
2017-06-23T01:58:22.675Z,27.40
2017-06-23T02:00:50.170Z,27.40
2017-06-23T02:03:17.677Z,27.40
2017-06-23T02:05:45.182Z,27.40
2017-06-23T02:08:12.693Z,27.40
2017-06-23T02:10:40.179Z,27.40
2017-06-23T02:13:07.673Z,27.40
2017-06-23T02:15:35.181Z,27.40
2017-06-23T02:18:02.673Z,27.40
2017-06-23T02:20:30.190Z,27.40
2017-06-23T02:22:57.678Z,27.40
2017-06-23T02:25:25.170Z,27.40
2017-06-23T02:27:52.675Z,27.40
2017-06-23T02:30:20.165Z,27.40
2017-06-23T02:32:47.681Z,27.40
2017-06-23T02:35:15.173Z,27.40
2017-06-23T02:37:42.670Z,27.40
2017-06-23T02:40:10.178Z,27.40
2017-06-23T02:42:37.670Z,27.40
2017-06-23T02:45:05.186Z,27.40
2017-06-23T02:47:32.682Z,27.40
2017-06-23T02:50:00.177Z,27.40
2017-06-23T02:52:27.677Z,27.30
2017-06-23T02:54:55.170Z,27.30
2017-06-23T02:57:22.686Z,27.30
2017-06-23T02:59:50.181Z,27.30
2017-06-23T03:02:17.669Z,27.30
2017-06-23T03:04:45.178Z,27.20
2017-06-23T03:07:12.669Z,27.20
2017-06-23T03:09:40.214Z,27.20
2017-06-23T03:12:07.728Z,27.10
2017-06-23T03:14:35.217Z,27.10
2017-06-23T03:17:02.741Z,27.10
2017-06-23T03:19:30.237Z,27.10
2017-06-23T03:21:57.754Z,27.10
2017-06-23T03:24:25.242Z,27.10
2017-06-23T03:26:52.746Z,27.10
2017-06-23T03:29:20.253Z,27.10
2017-06-23T03:31:47.740Z,27.10
2017-06-23T03:34:15.249Z,27.00
2017-06-23T03:36:42.741Z,27.00
2017-06-23T03:39:10.242Z,27.00
2017-06-23T03:41:37.750Z,27.00
2017-06-23T03:44:05.243Z,27.00
2017-06-23T03:46:32.757Z,27.00
2017-06-23T03:49:00.249Z,27.00
2017-06-23T03:51:27.765Z,27.00
2017-06-23T03:53:55.277Z,27.00
2017-06-23T03:56:22.773Z,27.00
2017-06-23T03:58:50.289Z,26.90
2017-06-23T04:01:17.782Z,26.90
2017-06-23T04:03:45.277Z,26.90
2017-06-23T04:06:12.777Z,26.90
2017-06-23T04:08:40.270Z,26.90
2017-06-23T04:11:07.798Z,26.90
2017-06-23T04:13:35.293Z,26.90
2017-06-23T04:16:02.788Z,26.90
2017-06-23T04:18:30.289Z,27.00
2017-06-23T04:20:57.778Z,27.00
2017-06-23T04:23:25.305Z,27.00
2017-06-23T04:25:52.797Z,27.00
2017-06-23T04:28:20.291Z,27.00
2017-06-23T04:30:47.797Z,27.00
2017-06-23T04:33:15.297Z,27.00
2017-06-23T04:35:42.821Z,27.00
2017-06-23T04:38:10.309Z,27.00
2017-06-23T04:40:37.801Z,27.00
2017-06-23T04:43:05.297Z,27.10
2017-06-23T04:45:32.790Z,27.10
2017-06-23T04:48:00.301Z,27.10
2017-06-23T04:50:27.798Z,27.10
2017-06-23T04:52:55.292Z,27.10
2017-06-23T04:55:22.805Z,27.20
2017-06-23T04:57:50.288Z,27.30
2017-06-23T05:00:17.806Z,27.20
2017-06-23T05:02:45.307Z,27.30
2017-06-23T05:05:12.797Z,27.30
2017-06-23T05:07:40.305Z,27.30
2017-06-23T05:10:07.797Z,27.40
2017-06-23T05:12:35.316Z,27.40
2017-06-23T05:15:02.832Z,27.40
2017-06-23T05:17:30.321Z,27.40
2017-06-23T05:19:57.825Z,27.40
2017-06-23T05:22:25.315Z,27.40
2017-06-23T05:24:52.849Z,27.50
2017-06-23T05:27:20.446Z,27.50
2017-06-23T05:29:47.938Z,27.60
2017-06-23T05:32:15.446Z,27.70
2017-06-23T05:34:42.937Z,27.80
2017-06-23T05:37:10.469Z,27.90
2017-06-23T05:39:37.957Z,28.00
2017-06-23T05:42:05.445Z,28.10
2017-06-23T05:44:32.949Z,28.20
2017-06-23T05:47:00.446Z,28.40
2017-06-23T05:49:27.957Z,28.50
2017-06-23T05:51:55.453Z,28.60
2017-06-23T05:54:22.958Z,28.70
2017-06-23T05:56:50.461Z,28.70
2017-06-23T05:59:17.949Z,28.80
2017-06-23T06:01:45.483Z,28.80
2017-06-23T06:04:12.997Z,29.00
2017-06-23T06:06:40.514Z,29.10
2017-06-23T06:09:08.023Z,29.20
2017-06-23T06:11:35.522Z,29.30
2017-06-23T06:14:03.052Z,29.50
2017-06-23T06:16:30.555Z,29.60
2017-06-23T06:18:58.046Z,29.70
2017-06-23T06:21:25.557Z,29.70
2017-06-23T06:23:53.049Z,29.80
2017-06-23T06:26:20.570Z,29.80
2017-06-23T06:28:48.066Z,29.80
2017-06-23T06:31:15.566Z,29.80
2017-06-23T06:33:43.077Z,29.90
2017-06-23T06:36:10.569Z,29.90
2017-06-23T06:38:38.077Z,30.00
2017-06-23T06:41:05.566Z,30.10
2017-06-23T06:43:33.061Z,30.10
2017-06-23T06:46:00.592Z,30.20
2017-06-23T06:48:28.090Z,30.20
2017-06-23T06:50:55.617Z,30.20
2017-06-23T06:53:23.111Z,30.10
2017-06-23T06:55:50.609Z,30.10
2017-06-23T06:58:18.123Z,30.20
2017-06-23T07:00:45.618Z,30.30
2017-06-23T07:03:13.126Z,30.40
2017-06-23T07:05:40.621Z,30.50
2017-06-23T07:08:08.182Z,30.60
2017-06-23T07:10:35.694Z,30.60
2017-06-23T07:13:03.193Z,30.70
2017-06-23T07:15:30.718Z,30.80
2017-06-23T07:17:58.205Z,30.90
2017-06-23T07:20:25.694Z,30.90
2017-06-23T07:22:53.206Z,31.00
2017-06-23T07:25:20.704Z,31.00
2017-06-23T07:27:48.242Z,31.10
2017-06-23T07:30:15.737Z,31.20
2017-06-23T07:32:43.230Z,31.20
2017-06-23T07:35:10.783Z,31.20
2017-06-23T07:37:38.283Z,31.20
2017-06-23T07:40:05.798Z,31.20
2017-06-23T07:42:33.294Z,31.20
2017-06-23T07:45:00.875Z,31.20
2017-06-23T07:47:28.393Z,31.20
2017-06-23T07:49:55.887Z,31.20
2017-06-23T07:52:23.445Z,31.20
2017-06-23T07:54:50.962Z,31.10
2017-06-23T07:57:18.457Z,31.20
2017-06-23T07:59:46.000Z,31.20
2017-06-23T08:02:13.502Z,31.20
2017-06-23T08:04:41.022Z,31.20
2017-06-23T08:07:08.518Z,31.30
2017-06-23T08:09:36.030Z,31.30
2017-06-23T08:12:03.538Z,31.30
2017-06-23T08:14:31.029Z,31.40
2017-06-23T08:16:58.530Z,31.50
2017-06-23T08:19:26.057Z,31.60
2017-06-23T08:21:53.554Z,31.60
2017-06-23T08:24:21.065Z,31.60
2017-06-23T08:26:48.557Z,31.60
2017-06-23T08:29:16.065Z,31.60
2017-06-23T08:31:43.581Z,31.60
2017-06-23T08:34:11.077Z,31.60
2017-06-23T08:36:38.586Z,31.60
2017-06-23T08:39:06.078Z,31.60
2017-06-23T08:41:33.577Z,31.50
2017-06-23T08:44:01.085Z,31.50
2017-06-23T08:46:28.574Z,31.60
2017-06-23T08:48:56.070Z,31.60
2017-06-23T08:51:23.590Z,31.60
2017-06-23T08:53:51.100Z,31.60
2017-06-23T08:56:18.593Z,31.60
2017-06-23T08:58:46.110Z,31.60
2017-06-23T09:01:13.608Z,31.60
2017-06-23T09:03:41.102Z,31.50
2017-06-23T09:06:08.637Z,31.40
2017-06-23T09:08:36.137Z,31.50
2017-06-23T09:11:03.630Z,31.50
2017-06-23T09:13:31.145Z,31.60
2017-06-23T09:15:58.642Z,31.60
2017-06-23T09:18:26.143Z,31.60
2017-06-23T09:20:53.666Z,31.60
2017-06-23T09:23:21.161Z,31.60
2017-06-23T09:25:48.658Z,31.60
2017-06-23T09:28:16.181Z,31.60
2017-06-23T09:30:43.677Z,31.70
2017-06-23T09:33:11.174Z,31.70
2017-06-23T09:35:38.690Z,31.80
2017-06-23T09:38:06.189Z,31.80
2017-06-23T09:40:33.723Z,31.80
2017-06-23T09:43:01.230Z,31.70
2017-06-23T09:45:28.742Z,31.80
2017-06-23T09:47:56.263Z,31.80
2017-06-23T09:50:23.757Z,31.90
2017-06-23T09:52:51.290Z,32.00
2017-06-23T09:55:18.786Z,32.10
2017-06-23T09:57:46.277Z,32.20
2017-06-23T10:00:13.782Z,32.30
2017-06-23T10:02:41.281Z,32.50
2017-06-23T10:05:08.797Z,32.50
2017-06-23T10:07:36.293Z,32.50
2017-06-23T10:10:03.791Z,32.60
2017-06-23T10:12:31.309Z,32.70
2017-06-23T10:14:58.807Z,32.80
2017-06-23T10:17:26.329Z,32.80
2017-06-23T10:19:53.822Z,32.90
2017-06-23T10:22:21.321Z,32.90
2017-06-23T10:24:48.839Z,32.90
2017-06-23T10:27:16.342Z,32.90
2017-06-23T10:29:43.853Z,33.00
2017-06-23T10:32:11.366Z,33.00
2017-06-23T10:34:38.867Z,33.10
2017-06-23T10:37:06.390Z,33.10
2017-06-23T10:39:33.886Z,33.20
2017-06-23T10:42:01.402Z,33.20
2017-06-23T10:44:28.918Z,33.20
2017-06-23T10:46:56.421Z,33.30
2017-06-23T10:49:23.950Z,33.40
2017-06-23T10:51:51.496Z,33.40
2017-06-23T10:54:19.033Z,33.40
2017-06-23T10:56:46.533Z,33.40
2017-06-23T10:59:14.049Z,33.40
2017-06-23T11:01:41.545Z,33.40
2017-06-23T11:04:09.038Z,33.30
2017-06-23T11:06:36.585Z,33.40
2017-06-23T11:09:04.125Z,33.40
2017-06-23T11:11:31.643Z,33.40
2017-06-23T11:13:59.134Z,33.50
2017-06-23T11:16:26.629Z,33.50
2017-06-23T11:18:54.155Z,33.60
2017-06-23T11:21:21.673Z,33.60
2017-06-23T11:23:49.203Z,33.60
2017-06-23T11:26:16.745Z,33.60
2017-06-23T11:28:44.233Z,33.60
2017-06-23T11:31:11.752Z,33.60
2017-06-23T11:33:39.246Z,33.70
2017-06-23T11:36:06.763Z,33.80
2017-06-23T11:38:34.253Z,33.80
2017-06-23T11:41:01.747Z,33.80
2017-06-23T11:43:29.269Z,33.90
2017-06-23T11:45:56.769Z,33.90
2017-06-23T11:48:24.288Z,33.90
2017-06-23T11:50:51.782Z,33.90
2017-06-23T11:53:19.273Z,33.90
2017-06-23T11:55:46.781Z,33.90
2017-06-23T11:58:14.286Z,34.00
2017-06-23T12:00:41.806Z,33.90
2017-06-23T12:03:09.301Z,33.90
2017-06-23T12:05:36.798Z,33.80
2017-06-23T12:08:04.318Z,33.80
2017-06-23T12:10:31.810Z,33.80
2017-06-23T12:12:59.325Z,33.70
2017-06-23T12:15:26.824Z,33.70
2017-06-23T12:17:54.322Z,33.70
2017-06-23T12:20:21.825Z,33.80
2017-06-23T12:22:49.319Z,33.80
2017-06-23T12:25:16.837Z,33.80
2017-06-23T12:27:44.337Z,33.80
2017-06-23T12:30:11.834Z,33.80
2017-06-23T12:32:39.345Z,33.80
2017-06-23T12:35:06.838Z,33.80
2017-06-23T12:37:34.349Z,33.80
2017-06-23T12:40:01.846Z,33.80
2017-06-23T12:42:29.345Z,33.80
2017-06-23T12:44:56.854Z,33.80
2017-06-23T12:47:24.355Z,33.70
2017-06-23T12:49:51.863Z,33.80
2017-06-23T12:52:19.361Z,33.80
2017-06-23T12:54:46.877Z,33.80
2017-06-23T12:57:14.390Z,33.70
2017-06-23T12:59:41.882Z,33.60
2017-06-23T13:02:09.414Z,33.70
2017-06-23T13:04:36.910Z,33.60
2017-06-23T13:07:04.403Z,33.60
2017-06-23T13:09:31.921Z,33.60
2017-06-23T13:11:59.416Z,33.50
2017-06-23T13:14:26.935Z,33.50
2017-06-23T13:16:54.432Z,33.50
2017-06-23T13:19:21.949Z,33.50
2017-06-23T13:21:49.446Z,33.60
2017-06-23T13:24:16.941Z,33.70
2017-06-23T13:26:44.450Z,33.80
2017-06-23T13:29:11.942Z,33.80
2017-06-23T13:31:39.463Z,34.00
2017-06-23T13:34:06.959Z,34.10
2017-06-23T13:36:34.453Z,34.20
2017-06-23T13:39:01.966Z,34.30
2017-06-23T13:41:29.457Z,34.30
2017-06-23T13:43:56.973Z,34.40
2017-06-23T13:46:24.469Z,34.50
2017-06-23T13:48:51.964Z,34.60
2017-06-23T13:51:19.487Z,34.60
2017-06-23T13:53:46.981Z,34.70
2017-06-23T13:56:14.727Z,34.70
2017-06-23T13:58:42.222Z,34.70
2017-06-23T14:01:09.722Z,34.80
2017-06-23T14:03:37.230Z,34.80
2017-06-23T14:06:04.747Z,34.80
2017-06-23T14:08:32.266Z,34.80
2017-06-23T14:10:59.762Z,34.80
2017-06-23T14:13:27.261Z,34.80
2017-06-23T14:15:54.766Z,34.80
2017-06-23T14:18:24.218Z,34.80
2017-06-23T14:20:51.725Z,34.80
2017-06-23T14:23:19.215Z,34.80
2017-06-23T14:25:46.706Z,34.80
2017-06-23T14:28:14.229Z,34.70
2017-06-23T14:30:41.723Z,34.60
2017-06-23T14:33:09.263Z,34.50
2017-06-23T14:35:36.757Z,34.50
2017-06-23T14:38:04.250Z,34.40
2017-06-23T14:40:31.766Z,34.40
2017-06-23T14:42:59.261Z,34.40
2017-06-23T14:45:26.765Z,34.40
2017-06-23T14:47:54.266Z,34.30
2017-06-23T14:50:21.834Z,34.30
2017-06-23T14:52:49.362Z,34.20
2017-06-23T14:55:16.857Z,34.20
2017-06-23T14:57:44.374Z,34.10
2017-06-23T15:00:11.865Z,34.00
2017-06-23T15:02:39.377Z,34.00
2017-06-23T15:05:06.881Z,34.00
2017-06-23T15:07:34.374Z,34.00
2017-06-23T15:10:01.886Z,33.90
2017-06-23T15:12:29.377Z,33.90
2017-06-23T15:14:56.865Z,34.00
2017-06-23T15:17:24.370Z,34.00
2017-06-23T15:19:51.863Z,34.00
2017-06-23T15:22:19.389Z,34.00
2017-06-23T15:24:46.879Z,34.00
2017-06-23T15:27:14.369Z,34.10
2017-06-23T15:29:41.882Z,34.20
2017-06-23T15:32:09.378Z,34.30
2017-06-23T15:34:36.885Z,34.40
2017-06-23T15:37:04.389Z,34.50
2017-06-23T15:39:31.890Z,34.60
2017-06-23T15:41:59.402Z,34.60
2017-06-23T15:44:26.895Z,34.70
2017-06-23T15:46:54.405Z,34.80
2017-06-23T15:49:21.906Z,34.80
2017-06-23T15:51:49.425Z,34.90
2017-06-23T15:54:16.918Z,35.00
2017-06-23T15:56:44.410Z,35.10
2017-06-23T15:59:11.917Z,35.10
2017-06-23T16:01:39.412Z,35.10
2017-06-23T16:04:06.929Z,35.10
2017-06-23T16:06:34.420Z,35.10
2017-06-23T16:09:01.913Z,35.10
2017-06-23T16:11:29.422Z,35.10
2017-06-23T16:13:56.920Z,35.00
2017-06-23T16:16:24.430Z,34.90
2017-06-23T16:18:51.921Z,34.90
2017-06-23T16:21:19.422Z,35.00
2017-06-23T16:23:46.926Z,34.90
2017-06-23T16:26:14.419Z,34.80
2017-06-23T16:28:41.937Z,34.80
2017-06-23T16:31:09.429Z,34.90
2017-06-23T16:33:36.917Z,34.80
2017-06-23T16:36:04.422Z,34.80
2017-06-23T16:38:31.913Z,34.80
2017-06-23T16:40:59.421Z,34.80
2017-06-23T16:43:26.918Z,34.80
2017-06-23T16:45:54.413Z,34.70
2017-06-23T16:48:21.925Z,34.60
2017-06-23T16:50:49.417Z,34.70
2017-06-23T16:53:16.933Z,34.60
2017-06-23T16:55:44.421Z,34.60
2017-06-23T16:58:11.917Z,34.40
2017-06-23T17:00:39.426Z,34.30
2017-06-23T17:03:06.917Z,34.20
2017-06-23T17:05:34.425Z,34.10
2017-06-23T17:08:01.917Z,34.10
2017-06-23T17:10:29.406Z,34.10
2017-06-23T17:12:56.950Z,34.00
2017-06-23T17:15:24.482Z,33.90
2017-06-23T17:17:52.002Z,33.90
2017-06-23T17:20:19.537Z,34.10
2017-06-23T17:22:47.038Z,34.20
2017-06-23T17:25:14.589Z,34.10
2017-06-23T17:27:42.106Z,34.30
2017-06-23T17:30:09.635Z,34.10
2017-06-23T17:32:37.138Z,33.70
2017-06-23T17:35:04.650Z,33.20
2017-06-23T17:37:32.177Z,32.90
2017-06-23T17:39:59.674Z,32.50
2017-06-23T17:42:27.194Z,32.20
2017-06-23T17:44:54.692Z,32.00
2017-06-23T17:47:22.193Z,31.80
2017-06-23T17:49:49.726Z,31.60
2017-06-23T17:52:17.256Z,31.50
2017-06-23T17:54:44.765Z,31.20
2017-06-23T17:57:12.257Z,30.90
2017-06-23T17:59:39.760Z,30.80
2017-06-23T18:02:07.297Z,30.70
2017-06-23T18:04:34.802Z,30.80
2017-06-23T18:07:02.322Z,30.90
2017-06-23T18:09:29.817Z,31.00
2017-06-23T18:11:57.317Z,30.90
2017-06-23T18:14:24.829Z,31.00
2017-06-23T18:16:52.349Z,31.00
2017-06-23T18:19:19.866Z,31.00
2017-06-23T18:21:47.390Z,31.00
2017-06-23T18:24:14.902Z,31.00
2017-06-23T18:26:42.397Z,31.00
2017-06-23T18:29:11.163Z,31.00
2017-06-23T18:31:39.501Z,30.90
2017-06-23T18:34:06.993Z,30.90
2017-06-23T18:36:34.505Z,30.90
2017-06-23T18:39:01.998Z,30.80
2017-06-23T18:41:29.501Z,30.80
2017-06-23T18:43:57.016Z,30.70
2017-06-23T18:46:24.514Z,30.70
2017-06-23T18:48:52.030Z,30.60
2017-06-23T18:51:19.522Z,30.60
2017-06-23T18:53:47.022Z,30.60
2017-06-23T18:56:14.537Z,30.50
2017-06-23T18:58:42.029Z,30.40
2017-06-23T19:01:09.541Z,30.40
2017-06-23T19:03:37.033Z,30.40
2017-06-23T19:06:04.522Z,30.30
2017-06-23T19:08:32.038Z,30.20
2017-06-23T19:10:59.533Z,30.10
2017-06-23T19:13:27.045Z,30.10
2017-06-23T19:15:54.537Z,30.00
2017-06-23T19:18:22.033Z,29.90
2017-06-23T19:20:49.546Z,29.80
2017-06-23T19:23:17.033Z,29.80
2017-06-23T19:25:44.561Z,29.70
2017-06-23T19:28:12.049Z,29.60
2017-06-23T19:30:39.585Z,29.50
2017-06-23T19:33:07.093Z,29.40
2017-06-23T19:35:34.585Z,29.40
2017-06-23T19:38:02.087Z,29.30
2017-06-23T19:40:29.577Z,29.20
2017-06-23T19:42:57.105Z,29.20
2017-06-23T19:45:24.596Z,29.10
2017-06-23T19:47:52.107Z,29.00
2017-06-23T19:50:19.623Z,29.00
2017-06-23T19:52:47.117Z,28.90
2017-06-23T19:55:14.627Z,28.80
2017-06-23T19:57:42.121Z,28.80
2017-06-23T20:00:09.617Z,28.70
2017-06-23T20:02:37.938Z,28.60
2017-06-23T20:05:05.433Z,28.60
2017-06-23T20:07:32.998Z,28.50
2017-06-23T20:10:00.521Z,28.50
2017-06-23T20:12:28.042Z,28.40
2017-06-23T20:14:55.565Z,28.30
2017-06-23T20:17:23.053Z,28.20
2017-06-23T20:19:50.566Z,28.10
2017-06-23T20:22:18.066Z,28.10
2017-06-23T20:24:45.577Z,28.00
2017-06-23T20:27:13.143Z,27.90
2017-06-23T20:29:40.724Z,27.80
2017-06-23T20:32:08.229Z,27.80
2017-06-23T20:34:35.731Z,27.70
2017-06-23T20:37:03.279Z,27.60
2017-06-23T20:39:30.804Z,27.50
2017-06-23T20:41:58.323Z,27.40
2017-06-23T20:44:25.837Z,27.40
2017-06-23T20:46:53.346Z,27.30
2017-06-23T20:49:20.841Z,27.20
2017-06-23T20:51:48.358Z,27.10
2017-06-23T20:54:15.858Z,27.10
2017-06-23T20:56:43.409Z,27.00
2017-06-23T20:59:10.922Z,26.90
2017-06-23T21:01:38.418Z,26.90
2017-06-23T21:04:05.933Z,26.80
2017-06-23T21:06:33.425Z,26.70
2017-06-23T21:09:01.228Z,26.70
2017-06-23T21:11:29.480Z,26.60
2017-06-23T21:13:57.386Z,26.50
2017-06-23T21:16:24.966Z,26.50
2017-06-23T21:18:52.457Z,26.40
2017-06-23T21:21:20.002Z,26.30
2017-06-23T21:23:47.525Z,26.30
2017-06-23T21:26:15.049Z,26.20
2017-06-23T21:28:42.629Z,26.10
2017-06-23T21:31:10.118Z,26.10
2017-06-23T21:33:37.629Z,26.00
2017-06-23T21:36:05.206Z,26.00
2017-06-23T21:38:32.701Z,25.90
2017-06-23T21:41:12.105Z,25.80
2017-06-23T21:43:39.598Z,25.80
2017-06-23T21:46:07.113Z,25.70
2017-06-23T21:48:34.794Z,25.60
2017-06-23T21:51:02.290Z,25.60
2017-06-23T21:53:29.806Z,25.50
2017-06-23T21:55:57.301Z,25.40
2017-06-23T21:58:24.810Z,25.40
2017-06-23T22:00:52.297Z,25.30
2017-06-23T22:03:19.805Z,25.30
2017-06-23T22:05:47.296Z,25.20
2017-06-23T22:08:14.819Z,25.20
2017-06-23T22:10:42.316Z,25.10
2017-06-23T22:13:09.813Z,25.10
2017-06-23T22:15:37.327Z,25.00
2017-06-23T22:18:04.850Z,24.90
2017-06-23T22:20:32.365Z,24.90
2017-06-23T22:22:59.858Z,24.80
2017-06-23T22:25:27.349Z,24.80
2017-06-23T22:27:54.859Z,24.70
2017-06-23T22:30:23.933Z,24.70
2017-06-23T22:32:51.482Z,24.60
2017-06-23T22:35:18.980Z,24.60
2017-06-23T22:37:46.477Z,24.50
2017-06-23T22:40:13.989Z,24.50
2017-06-23T22:42:41.478Z,24.50
2017-06-23T22:45:08.985Z,24.40
2017-06-23T22:47:36.482Z,24.40
2017-06-23T22:50:03.978Z,24.30
2017-06-23T22:52:31.486Z,24.30
2017-06-23T22:54:58.974Z,24.20
2017-06-23T22:57:26.478Z,24.20
2017-06-23T22:59:53.970Z,24.20
2017-06-23T23:02:21.462Z,24.10
2017-06-23T23:04:48.965Z,24.10
2017-06-23T23:07:16.453Z,24.10
2017-06-23T23:09:43.957Z,24.00
2017-06-23T23:12:11.453Z,24.00
2017-06-23T23:14:38.951Z,23.90
2017-06-23T23:17:06.461Z,23.90
2017-06-23T23:19:33.950Z,23.80
2017-06-23T23:22:01.461Z,23.80
2017-06-23T23:24:28.958Z,23.80
2017-06-23T23:26:56.456Z,23.70
2017-06-23T23:29:23.965Z,23.70
2017-06-23T23:31:51.457Z,23.70
2017-06-23T23:34:18.961Z,23.60
2017-06-23T23:36:46.453Z,23.60
2017-06-23T23:39:14.151Z,23.50
2017-06-23T23:41:41.663Z,23.50
2017-06-23T23:44:09.157Z,23.50
2017-06-23T23:46:36.682Z,23.40
2017-06-23T23:49:04.173Z,23.40
2017-06-23T23:51:31.736Z,23.40
2017-06-23T23:53:59.293Z,23.30
2017-06-23T23:56:26.785Z,23.30
2017-06-23T23:58:54.298Z,23.30
